createdAt,value
2023-12-30T00:00:17.903Z,18.53
2023-12-30T00:00:51.627Z,18.77
2023-12-30T00:01:23.816Z,17.23
2023-12-30T00:01:56.783Z,16.80
2023-12-30T00:02:28.721Z,19.43
2023-12-30T00:03:00.900Z,20.37
2023-12-30T00:03:33.401Z,19.30
2023-12-30T00:04:05.652Z,17.60
2023-12-30T00:04:37.760Z,18.03
2023-12-30T00:05:10.122Z,19.90
2023-12-30T00:05:42.157Z,18.87
2023-12-30T00:06:14.217Z,18.10
2023-12-30T00:06:46.157Z,17.13
2023-12-30T00:07:18.304Z,15.80
2023-12-30T00:07:50.333Z,16.87
2023-12-30T00:08:22.271Z,17.47
2023-12-30T00:08:54.251Z,16.63
2023-12-30T00:09:26.170Z,18.53
2023-12-30T00:09:58.149Z,18.23
2023-12-30T00:10:30.820Z,18.07
2023-12-30T00:11:02.838Z,20.23
2023-12-30T00:11:34.859Z,20.20
2023-12-30T00:12:07.091Z,18.97
2023-12-30T00:12:39.018Z,16.40
2023-12-30T00:13:10.993Z,18.20
2023-12-30T00:13:42.921Z,15.97
2023-12-30T00:14:14.872Z,17.43
2023-12-30T00:14:47.131Z,17.27
2023-12-30T00:15:20.818Z,13.73
2023-12-30T00:15:53.489Z,16.00
2023-12-30T00:16:26.361Z,18.87
2023-12-30T00:16:58.260Z,20.30
2023-12-30T00:17:30.278Z,18.57
2023-12-30T00:18:02.391Z,15.33
2023-12-30T00:18:34.415Z,14.57
2023-12-30T00:19:07.238Z,14.63
2023-12-30T00:19:43.825Z,17.10
2023-12-30T00:20:15.921Z,15.83
2023-12-30T00:20:47.799Z,15.00
2023-12-30T00:21:20.660Z,14.93
2023-12-30T00:21:53.855Z,13.67
2023-12-30T00:22:25.860Z,14.50
2023-12-30T00:22:57.740Z,14.43
2023-12-30T00:23:37.055Z,13.63
2023-12-30T00:24:13.078Z,13.27
2023-12-30T00:24:44.965Z,12.83
2023-12-30T00:25:17.714Z,13.67
2023-12-30T00:25:49.792Z,13.50
2023-12-30T00:26:23.068Z,13.73
2023-12-30T00:26:55.057Z,13.30
2023-12-30T00:27:27.177Z,14.03
2023-12-30T00:27:59.090Z,13.20
2023-12-30T00:28:31.085Z,13.17
2023-12-30T00:29:03.006Z,13.63
2023-12-30T00:29:39.542Z,13.37
2023-12-30T00:30:14.365Z,13.73
2023-12-30T00:30:46.441Z,13.07
2023-12-30T00:31:25.957Z,13.47
2023-12-30T00:31:57.836Z,14.23
2023-12-30T00:32:29.861Z,14.37
2023-12-30T00:33:02.081Z,13.27
2023-12-30T00:33:34.273Z,13.27
2023-12-30T00:34:06.199Z,13.57
2023-12-30T00:34:38.163Z,13.37
2023-12-30T00:35:10.508Z,13.13
2023-12-30T00:35:42.457Z,13.33
2023-12-30T00:36:14.441Z,14.17
2023-12-30T00:36:46.354Z,14.50
2023-12-30T00:37:22.022Z,15.00
2023-12-30T00:37:55.166Z,14.30
2023-12-30T00:38:27.057Z,14.77
2023-12-30T00:38:59.079Z,14.67
2023-12-30T00:39:31.008Z,15.10
2023-12-30T00:40:03.397Z,15.67
2023-12-30T00:40:35.428Z,14.27
2023-12-30T00:41:07.476Z,14.90
2023-12-30T00:41:39.419Z,15.03
2023-12-30T00:42:11.322Z,13.80
2023-12-30T00:42:43.251Z,14.20
2023-12-30T00:43:15.160Z,13.90
2023-12-30T00:43:47.105Z,13.93
2023-12-30T00:44:19.065Z,13.33
2023-12-30T00:44:51.004Z,12.97
2023-12-30T00:45:23.143Z,13.20
2023-12-30T00:45:55.183Z,13.37
2023-12-30T00:46:27.223Z,13.67
2023-12-30T00:46:59.109Z,12.53
2023-12-30T00:47:31.066Z,12.17
2023-12-30T00:48:03.336Z,12.20
2023-12-30T00:48:35.450Z,11.40
2023-12-30T00:49:10.231Z,11.73
2023-12-30T00:49:42.314Z,12.13
2023-12-30T00:50:14.551Z,12.00
2023-12-30T00:50:46.459Z,12.07
2023-12-30T00:51:19.005Z,13.90
2023-12-30T00:51:50.976Z,13.60
2023-12-30T00:52:22.971Z,12.80
2023-12-30T00:52:54.986Z,12.93
2023-12-30T00:53:26.928Z,12.27
2023-12-30T00:53:58.968Z,12.23
2023-12-30T00:54:37.972Z,12.00
2023-12-30T00:55:13.373Z,11.40
2023-12-30T00:55:45.338Z,11.80
2023-12-30T00:56:17.249Z,11.90
2023-12-30T00:56:49.176Z,12.33
2023-12-30T00:57:21.073Z,12.13
2023-12-30T00:57:53.759Z,10.20
2023-12-30T00:58:26.391Z,10.40
2023-12-30T00:58:58.789Z,10.90
2023-12-30T00:59:30.803Z,11.83
2023-12-30T01:00:02.767Z,11.70
2023-12-30T01:00:34.659Z,12.17
2023-12-30T01:01:08.702Z,11.20
2023-12-30T01:01:41.049Z,11.60
2023-12-30T01:02:13.107Z,13.13
2023-12-30T01:02:45.126Z,12.03
2023-12-30T01:03:17.287Z,11.27
2023-12-30T01:03:49.524Z,11.43
2023-12-30T01:04:21.638Z,10.80
2023-12-30T01:04:53.633Z,11.10
2023-12-30T01:05:25.807Z,11.27
2023-12-30T01:05:57.731Z,11.00
2023-12-30T01:06:29.684Z,12.40
2023-12-30T01:07:01.686Z,12.03
2023-12-30T01:07:33.726Z,11.97
2023-12-30T01:08:05.970Z,11.80
2023-12-30T01:08:38.065Z,11.33
2023-12-30T01:09:10.037Z,12.50
2023-12-30T01:09:41.960Z,11.37
2023-12-30T01:10:14.116Z,11.70
2023-12-30T01:10:46.129Z,12.80
2023-12-30T01:11:18.087Z,13.63
2023-12-30T01:11:49.992Z,11.60
2023-12-30T01:12:21.928Z,12.03
2023-12-30T01:12:53.839Z,12.40
2023-12-30T01:13:25.791Z,11.00
2023-12-30T01:13:57.884Z,14.20
2023-12-30T01:14:31.180Z,16.67
2023-12-30T01:15:03.772Z,15.13
2023-12-30T01:15:36.364Z,15.53
2023-12-30T01:16:08.423Z,12.77
2023-12-30T01:16:40.559Z,10.77
2023-12-30T01:17:12.567Z,10.17
2023-12-30T01:17:44.521Z,9.90
2023-12-30T01:18:16.639Z,10.90
2023-12-30T01:18:49.185Z,10.70
2023-12-30T01:19:21.399Z,10.23
2023-12-30T01:19:53.544Z,10.00
2023-12-30T01:20:25.488Z,10.27
2023-12-30T01:20:57.401Z,10.43
2023-12-30T01:21:29.393Z,9.80
2023-12-30T01:22:01.256Z,9.37
2023-12-30T01:22:33.214Z,9.23
2023-12-30T01:23:05.157Z,10.40
2023-12-30T01:23:37.083Z,10.30
2023-12-30T01:24:10.642Z,10.63
2023-12-30T01:24:42.494Z,9.30
2023-12-30T01:25:14.486Z,9.33
2023-12-30T01:25:46.437Z,9.97
2023-12-30T01:26:18.550Z,9.87
2023-12-30T01:26:50.473Z,8.53
2023-12-30T01:27:22.350Z,8.20
2023-12-30T01:27:54.331Z,9.43
2023-12-30T01:28:26.266Z,9.97
2023-12-30T01:28:58.304Z,10.30
2023-12-30T01:29:30.593Z,11.23
2023-12-30T01:30:02.594Z,12.13
2023-12-30T01:30:37.283Z,9.10
2023-12-30T01:31:09.433Z,7.77
2023-12-30T01:31:41.690Z,7.63
2023-12-30T01:32:13.620Z,8.57
2023-12-30T01:32:46.639Z,9.00
2023-12-30T01:33:19.072Z,8.83
2023-12-30T01:33:51.120Z,8.40
2023-12-30T01:34:23.235Z,9.23
2023-12-30T01:34:55.334Z,9.80
2023-12-30T01:35:27.336Z,9.73
2023-12-30T01:35:59.201Z,9.80
2023-12-30T01:36:31.555Z,8.53
2023-12-30T01:37:04.308Z,8.47
2023-12-30T01:37:36.417Z,9.53
2023-12-30T01:38:08.425Z,9.80
2023-12-30T01:38:42.920Z,9.97
2023-12-30T01:39:14.866Z,9.10
2023-12-30T01:39:46.998Z,9.07
2023-12-30T01:40:19.140Z,8.23
2023-12-30T01:40:51.206Z,9.53
2023-12-30T01:41:23.155Z,9.63
2023-12-30T01:41:55.061Z,8.20
2023-12-30T01:42:26.972Z,8.03
2023-12-30T01:43:00.179Z,8.47
2023-12-30T01:43:34.424Z,9.83
2023-12-30T01:44:06.676Z,9.20
2023-12-30T01:44:38.631Z,9.57
2023-12-30T01:45:10.831Z,9.10
2023-12-30T01:45:42.793Z,10.07
2023-12-30T01:46:15.076Z,9.73
2023-12-30T01:46:47.553Z,9.23
2023-12-30T01:47:20.002Z,10.07
2023-12-30T01:47:52.746Z,10.80
2023-12-30T01:48:25.376Z,10.17
2023-12-30T01:48:57.547Z,10.30
2023-12-30T01:49:29.998Z,10.60
2023-12-30T01:50:02.049Z,9.73
2023-12-30T01:50:34.047Z,9.03
2023-12-30T01:51:23.865Z,8.93
2023-12-30T01:51:59.986Z,10.93
2023-12-30T01:52:34.618Z,12.20
2023-12-30T01:53:07.714Z,13.87
2023-12-30T01:53:43.294Z,11.03
2023-12-30T01:54:19.613Z,11.13
2023-12-30T01:54:51.687Z,11.80
2023-12-30T01:55:23.836Z,11.23
2023-12-30T01:55:58.853Z,10.87
2023-12-30T01:56:30.908Z,11.30
2023-12-30T01:57:04.131Z,11.73
2023-12-30T01:57:36.192Z,11.20
2023-12-30T01:58:08.246Z,12.07
2023-12-30T01:58:40.860Z,11.23
2023-12-30T01:59:16.376Z,11.37
2023-12-30T01:59:50.186Z,11.67
2023-12-30T02:00:26.115Z,12.27
2023-12-30T02:00:59.764Z,11.87
2023-12-30T02:01:32.131Z,11.90
2023-12-30T02:02:04.476Z,11.90
2023-12-30T02:02:36.622Z,11.40
2023-12-30T02:03:09.046Z,11.60
2023-12-30T02:03:41.686Z,12.03
2023-12-30T02:04:14.090Z,12.43
2023-12-30T02:04:46.697Z,11.77
2023-12-30T02:05:19.291Z,11.23
2023-12-30T02:05:51.393Z,11.30
2023-12-30T02:06:23.362Z,11.77
2023-12-30T02:06:55.325Z,11.77
2023-12-30T02:07:27.415Z,13.13
2023-12-30T02:07:59.744Z,13.37
2023-12-30T02:08:31.710Z,13.93
2023-12-30T02:09:03.774Z,14.10
2023-12-30T02:09:35.764Z,14.03
2023-12-30T02:10:09.687Z,14.90
2023-12-30T02:10:41.974Z,14.00
2023-12-30T02:11:16.225Z,14.50
2023-12-30T02:11:49.517Z,13.60
2023-12-30T02:12:21.497Z,13.33
2023-12-30T02:12:53.501Z,13.23
2023-12-30T02:13:25.501Z,13.70
2023-12-30T02:13:57.418Z,14.00
2023-12-30T02:14:31.601Z,13.83
2023-12-30T02:15:14.046Z,13.17
2023-12-30T02:15:45.968Z,13.27
2023-12-30T02:16:18.012Z,13.50
2023-12-30T02:16:50.069Z,14.30
2023-12-30T02:17:23.911Z,14.60
2023-12-30T02:17:57.821Z,15.30
2023-12-30T02:18:29.905Z,16.13
2023-12-30T02:19:02.062Z,16.27
2023-12-30T02:19:34.916Z,16.03
2023-12-30T02:20:07.382Z,16.23
2023-12-30T02:20:39.850Z,16.23
2023-12-30T02:21:11.800Z,14.77
2023-12-30T02:21:43.686Z,15.93
2023-12-30T02:22:16.644Z,14.93
2023-12-30T02:22:49.623Z,12.87
2023-12-30T02:23:21.504Z,12.57
2023-12-30T02:23:54.951Z,13.87
2023-12-30T02:24:26.929Z,13.43
2023-12-30T02:25:01.250Z,12.57
2023-12-30T02:25:33.354Z,12.87
2023-12-30T02:26:08.850Z,11.90
2023-12-30T02:26:41.049Z,11.63
2023-12-30T02:27:12.968Z,11.97
2023-12-30T02:27:45.708Z,12.13
2023-12-30T02:28:17.972Z,11.93
2023-12-30T02:28:49.923Z,12.07
2023-12-30T02:29:21.941Z,11.80
2023-12-30T02:29:53.866Z,12.27
2023-12-30T02:30:26.007Z,13.43
2023-12-30T02:30:58.145Z,12.73
2023-12-30T02:31:30.130Z,11.90
2023-12-30T02:32:02.107Z,11.80
2023-12-30T02:32:34.071Z,11.87
2023-12-30T02:33:06.520Z,12.77
2023-12-30T02:33:38.672Z,13.00
2023-12-30T02:34:10.587Z,11.70
2023-12-30T02:34:42.681Z,12.27
2023-12-30T02:35:14.653Z,12.80
2023-12-30T02:35:47.584Z,12.83
2023-12-30T02:36:19.613Z,11.47
2023-12-30T02:36:51.676Z,11.37
2023-12-30T02:37:23.604Z,11.60
2023-12-30T02:37:55.560Z,11.67
2023-12-30T02:38:27.477Z,11.73
2023-12-30T02:38:59.391Z,11.47
2023-12-30T02:39:31.265Z,12.23
2023-12-30T02:40:03.512Z,12.33
2023-12-30T02:40:35.610Z,11.10
2023-12-30T02:41:07.525Z,11.43
2023-12-30T02:41:39.590Z,11.33
2023-12-30T02:42:11.522Z,11.23
2023-12-30T02:42:43.482Z,11.37
2023-12-30T02:43:15.428Z,12.43
2023-12-30T02:44:02.129Z,12.33
2023-12-30T02:44:34.262Z,11.67
2023-12-30T02:45:06.715Z,12.00
2023-12-30T02:45:38.794Z,10.90
2023-12-30T02:46:10.787Z,10.53
2023-12-30T02:46:42.699Z,10.90
2023-12-30T02:47:14.612Z,11.50
2023-12-30T02:47:46.696Z,12.13
2023-12-30T02:48:18.857Z,11.93
2023-12-30T02:48:50.930Z,12.47
2023-12-30T02:49:23.142Z,12.50
2023-12-30T02:49:55.263Z,12.47
2023-12-30T02:50:27.232Z,13.07
2023-12-30T02:51:00.412Z,13.03
2023-12-30T02:51:32.720Z,12.83
2023-12-30T02:52:04.759Z,13.60
2023-12-30T02:52:36.753Z,14.23
2023-12-30T02:53:08.636Z,12.67
2023-12-30T02:53:40.775Z,12.50
2023-12-30T02:54:12.775Z,13.50
2023-12-30T02:54:44.787Z,12.27
2023-12-30T02:55:17.244Z,13.37
2023-12-30T02:55:49.144Z,13.23
2023-12-30T02:56:21.735Z,13.90
2023-12-30T02:56:53.759Z,14.07
2023-12-30T02:57:26.973Z,13.20
2023-12-30T02:57:58.975Z,13.47
2023-12-30T02:58:31.063Z,14.10
2023-12-30T02:59:03.529Z,13.87
2023-12-30T02:59:35.529Z,14.57
2023-12-30T03:00:08.250Z,13.47
2023-12-30T03:00:40.299Z,14.33
2023-12-30T03:01:12.374Z,15.37
2023-12-30T03:01:44.493Z,14.43
2023-12-30T03:02:16.428Z,13.90
2023-12-30T03:02:48.538Z,13.87
2023-12-30T03:03:20.400Z,14.17
2023-12-30T03:03:54.670Z,14.53
2023-12-30T03:04:26.746Z,13.90
2023-12-30T03:04:58.900Z,14.77
2023-12-30T03:05:31.015Z,13.80
2023-12-30T03:06:03.080Z,13.87
2023-12-30T03:06:34.993Z,14.10
2023-12-30T03:07:06.994Z,15.27
2023-12-30T03:07:39.046Z,15.93
2023-12-30T03:08:10.986Z,17.50
2023-12-30T03:08:43.031Z,16.20
2023-12-30T03:09:15.054Z,16.83
2023-12-30T03:09:47.042Z,16.33
2023-12-30T03:10:19.099Z,15.13
2023-12-30T03:10:51.179Z,14.67
2023-12-30T03:11:24.252Z,14.80
2023-12-30T03:11:56.267Z,15.07
2023-12-30T03:12:29.204Z,15.33
2023-12-30T03:13:01.642Z,14.93
2023-12-30T03:13:33.824Z,15.10
2023-12-30T03:14:05.885Z,14.10
2023-12-30T03:14:37.853Z,13.17
2023-12-30T03:15:10.495Z,14.67
2023-12-30T03:15:42.455Z,13.07
2023-12-30T03:16:17.524Z,12.30
2023-12-30T03:16:49.491Z,11.93
2023-12-30T03:17:21.477Z,12.73
2023-12-30T03:17:53.435Z,12.50
2023-12-30T03:18:25.551Z,12.73
2023-12-30T03:18:57.658Z,13.53
2023-12-30T03:19:29.753Z,13.93
2023-12-30T03:20:04.680Z,13.83
2023-12-30T03:20:36.646Z,13.30
2023-12-30T03:21:10.615Z,12.47
2023-12-30T03:21:42.583Z,12.23
2023-12-30T03:22:14.543Z,12.17
2023-12-30T03:22:46.441Z,12.00
2023-12-30T03:23:18.403Z,12.30
2023-12-30T03:23:50.416Z,13.07
2023-12-30T03:24:22.425Z,13.90
2023-12-30T03:24:54.386Z,15.03
2023-12-30T03:25:26.333Z,16.03
2023-12-30T03:25:58.287Z,15.27
2023-12-30T03:26:30.174Z,14.87
2023-12-30T03:27:02.181Z,14.33
2023-12-30T03:27:34.081Z,13.73
2023-12-30T03:28:06.314Z,13.50
2023-12-30T03:28:38.817Z,14.07
2023-12-30T03:29:10.743Z,14.83
2023-12-30T03:29:44.692Z,14.33
2023-12-30T03:30:16.924Z,14.17
2023-12-30T03:30:48.942Z,13.57
2023-12-30T03:31:25.144Z,13.17
2023-12-30T03:31:57.146Z,13.40
2023-12-30T03:32:29.947Z,13.23
2023-12-30T03:33:02.315Z,13.70
2023-12-30T03:33:34.576Z,13.57
2023-12-30T03:34:06.615Z,12.30
2023-12-30T03:34:38.704Z,13.00
2023-12-30T03:35:10.738Z,12.63
2023-12-30T03:35:42.916Z,13.53
2023-12-30T03:36:14.844Z,13.00
2023-12-30T03:36:46.733Z,15.30
2023-12-30T03:37:18.630Z,15.20
2023-12-30T03:37:50.676Z,15.10
2023-12-30T03:38:22.786Z,14.90
2023-12-30T03:38:55.236Z,15.67
2023-12-30T03:39:27.176Z,14.47
2023-12-30T03:39:59.190Z,14.20
2023-12-30T03:40:31.237Z,13.83
2023-12-30T03:41:03.172Z,13.90
2023-12-30T03:41:35.048Z,14.03
2023-12-30T03:42:07.151Z,15.60
2023-12-30T03:42:39.059Z,16.30
2023-12-30T03:43:11.024Z,14.93
2023-12-30T03:43:43.033Z,14.67
2023-12-30T03:44:15.279Z,15.00
2023-12-30T03:44:47.216Z,15.03
2023-12-30T03:45:19.170Z,15.10
2023-12-30T03:45:51.190Z,15.30
2023-12-30T03:46:23.179Z,15.67
2023-12-30T03:46:55.108Z,14.87
2023-12-30T03:47:27.081Z,14.80
2023-12-30T03:47:59.142Z,14.90
2023-12-30T03:48:31.230Z,15.07
2023-12-30T03:49:03.342Z,15.17
2023-12-30T03:49:35.473Z,14.07
2023-12-30T03:50:07.767Z,13.53
2023-12-30T03:50:40.243Z,11.83
2023-12-30T03:51:12.349Z,12.80
2023-12-30T03:51:44.308Z,13.63
2023-12-30T03:52:16.535Z,13.50
2023-12-30T03:52:48.775Z,14.67
2023-12-30T03:53:20.807Z,14.30
2023-12-30T03:53:52.702Z,13.93
2023-12-30T03:54:24.580Z,12.27
2023-12-30T03:54:57.105Z,13.23
2023-12-30T03:55:29.056Z,13.60
2023-12-30T03:56:01.742Z,15.80
2023-12-30T03:56:33.974Z,15.50
2023-12-30T03:57:05.953Z,15.07
2023-12-30T03:57:37.924Z,15.50
2023-12-30T03:58:09.868Z,15.03
2023-12-30T03:58:41.792Z,14.90
2023-12-30T03:59:13.655Z,14.63
2023-12-30T03:59:45.574Z,14.00
2023-12-30T04:00:17.824Z,14.20
2023-12-30T04:00:49.899Z,14.10
2023-12-30T04:01:25.032Z,13.17
2023-12-30T04:01:57.063Z,13.20
2023-12-30T04:02:29.032Z,12.50
2023-12-30T04:03:01.161Z,11.57
2023-12-30T04:03:33.346Z,12.00
2023-12-30T04:04:05.344Z,12.77
2023-12-30T04:04:37.276Z,12.47
2023-12-30T04:05:09.292Z,11.63
2023-12-30T04:05:41.850Z,11.37
2023-12-30T04:06:17.831Z,12.37
2023-12-30T04:06:50.159Z,11.03
2023-12-30T04:07:22.219Z,11.43
2023-12-30T04:07:54.242Z,12.03
2023-12-30T04:08:26.180Z,10.97
2023-12-30T04:08:58.100Z,11.00
2023-12-30T04:09:29.971Z,11.13
2023-12-30T04:10:02.053Z,10.63
2023-12-30T04:10:34.197Z,10.33
2023-12-30T04:11:06.208Z,10.10
2023-12-30T04:11:38.151Z,10.50
2023-12-30T04:12:11.035Z,10.97
2023-12-30T04:12:43.247Z,12.00
2023-12-30T04:13:15.351Z,12.37
2023-12-30T04:13:47.296Z,11.50
2023-12-30T04:14:19.245Z,10.60
2023-12-30T04:14:51.173Z,9.70
2023-12-30T04:15:23.310Z,9.93
2023-12-30T04:15:55.311Z,11.00
2023-12-30T04:16:27.370Z,10.87
2023-12-30T04:16:59.348Z,10.87
2023-12-30T04:17:31.329Z,11.30
2023-12-30T04:18:03.609Z,9.70
2023-12-30T04:18:35.679Z,9.37
2023-12-30T04:19:07.735Z,9.73
2023-12-30T04:19:40.342Z,10.80
2023-12-30T04:20:12.514Z,11.20
2023-12-30T04:20:44.467Z,11.00
2023-12-30T04:21:16.685Z,10.00
2023-12-30T04:21:48.751Z,9.80
2023-12-30T04:22:20.720Z,10.13
2023-12-30T04:22:52.684Z,10.50
2023-12-30T04:23:25.617Z,10.27
2023-12-30T04:23:57.562Z,9.57
2023-12-30T04:24:29.482Z,9.47
2023-12-30T04:25:03.760Z,9.83
2023-12-30T04:25:36.241Z,8.90
2023-12-30T04:26:08.255Z,9.40
2023-12-30T04:26:40.328Z,9.67
2023-12-30T04:27:12.333Z,9.93
2023-12-30T04:27:44.256Z,9.73
2023-12-30T04:28:16.238Z,10.07
2023-12-30T04:28:48.310Z,10.30
2023-12-30T04:29:20.254Z,10.73
2023-12-30T04:29:52.523Z,10.10
2023-12-30T04:30:25.216Z,10.10
2023-12-30T04:30:57.418Z,10.23
2023-12-30T04:31:29.407Z,10.87
2023-12-30T04:32:01.377Z,10.07
2023-12-30T04:32:33.438Z,9.57
2023-12-30T04:33:06.306Z,10.77
2023-12-30T04:33:38.828Z,10.37
2023-12-30T04:34:11.244Z,10.33
2023-12-30T04:34:43.301Z,10.33
2023-12-30T04:35:15.342Z,9.67
2023-12-30T04:35:47.845Z,10.27
2023-12-30T04:36:19.739Z,10.23
2023-12-30T04:36:51.701Z,9.73
2023-12-30T04:37:23.600Z,9.93
2023-12-30T04:37:55.560Z,10.30
2023-12-30T04:38:27.510Z,10.00
2023-12-30T04:38:59.437Z,10.03
2023-12-30T04:39:31.393Z,10.47
2023-12-30T04:40:04.269Z,10.87
2023-12-30T04:40:36.409Z,10.40
2023-12-30T04:41:08.473Z,11.13
2023-12-30T04:41:41.785Z,11.03
2023-12-30T04:42:14.091Z,10.63
2023-12-30T04:42:45.970Z,10.13
2023-12-30T04:43:17.909Z,10.90
2023-12-30T04:43:49.837Z,11.13
2023-12-30T04:44:21.712Z,11.53
2023-12-30T04:44:53.627Z,10.93
2023-12-30T04:45:25.620Z,10.57
2023-12-30T04:45:57.605Z,11.13
2023-12-30T04:46:29.617Z,10.47
2023-12-30T04:47:01.561Z,10.13
2023-12-30T04:47:33.551Z,10.37
2023-12-30T04:48:05.851Z,10.77
2023-12-30T04:48:37.806Z,10.90
2023-12-30T04:49:09.948Z,10.80
2023-12-30T04:49:42.138Z,10.97
2023-12-30T04:50:14.245Z,10.83
2023-12-30T04:50:46.154Z,10.93
2023-12-30T04:51:18.118Z,11.70
2023-12-30T04:51:50.012Z,11.20
2023-12-30T04:52:22.050Z,10.43
2023-12-30T04:52:54.018Z,10.43
2023-12-30T04:53:26.705Z,10.50
2023-12-30T04:53:58.586Z,10.37
2023-12-30T04:54:31.996Z,10.50
2023-12-30T04:55:04.395Z,10.80
2023-12-30T04:55:37.674Z,11.07
2023-12-30T04:56:15.966Z,11.43
2023-12-30T04:56:48.008Z,11.33
2023-12-30T04:57:19.954Z,11.90
2023-12-30T04:57:51.892Z,11.27
2023-12-30T04:58:24.036Z,11.17
2023-12-30T04:58:56.359Z,12.77
2023-12-30T04:59:28.424Z,12.17
2023-12-30T05:00:00.478Z,12.17
2023-12-30T05:00:32.517Z,11.70
2023-12-30T05:01:04.666Z,13.13
2023-12-30T05:01:37.434Z,13.13
2023-12-30T05:02:09.409Z,12.70
2023-12-30T05:02:41.320Z,12.30
2023-12-30T05:03:14.405Z,13.00
2023-12-30T05:03:46.367Z,13.47
2023-12-30T05:04:18.797Z,13.07
2023-12-30T05:04:50.807Z,12.67
2023-12-30T05:05:22.919Z,13.70
2023-12-30T05:05:56.924Z,14.13
2023-12-30T05:06:30.616Z,14.03
2023-12-30T05:07:02.805Z,13.10
2023-12-30T05:07:34.848Z,12.83
2023-12-30T05:08:08.460Z,13.57
2023-12-30T05:08:40.375Z,13.77
2023-12-30T05:09:15.615Z,14.73
2023-12-30T05:09:47.619Z,14.50
2023-12-30T05:10:19.708Z,14.40
2023-12-30T05:10:51.621Z,13.60
2023-12-30T05:11:26.600Z,14.27
2023-12-30T05:11:58.609Z,14.27
2023-12-30T05:12:30.485Z,13.30
2023-12-30T05:13:03.041Z,12.93
2023-12-30T05:13:35.152Z,13.77
2023-12-30T05:14:08.002Z,14.83
2023-12-30T05:14:39.977Z,16.03
2023-12-30T05:15:15.175Z,17.47
2023-12-30T05:15:47.243Z,16.20
2023-12-30T05:16:19.222Z,16.23
2023-12-30T05:16:51.348Z,15.53
2023-12-30T05:17:23.358Z,15.13
2023-12-30T05:17:55.809Z,16.27
2023-12-30T05:18:27.807Z,17.73
2023-12-30T05:18:59.831Z,17.50
2023-12-30T05:19:31.828Z,16.73
2023-12-30T05:20:05.004Z,16.83
2023-12-30T05:20:37.017Z,17.27
2023-12-30T05:21:16.109Z,17.53
2023-12-30T05:21:54.865Z,17.40
2023-12-30T05:22:26.879Z,17.80
2023-12-30T05:23:02.312Z,17.00
2023-12-30T05:23:34.636Z,17.13
2023-12-30T05:24:07.719Z,18.17
2023-12-30T05:24:39.994Z,17.67
2023-12-30T05:25:12.172Z,21.43
2023-12-30T05:25:44.698Z,23.43
2023-12-30T05:26:17.013Z,19.17
2023-12-30T05:26:50.301Z,16.50
2023-12-30T05:27:22.315Z,15.10
2023-12-30T05:27:54.326Z,14.47
2023-12-30T05:28:26.248Z,14.33
2023-12-30T05:28:59.087Z,15.50
2023-12-30T05:29:31.147Z,14.80
2023-12-30T05:30:03.190Z,15.47
2023-12-30T05:30:35.145Z,16.07
2023-12-30T05:31:08.418Z,15.87
2023-12-30T05:31:40.478Z,15.93
2023-12-30T05:32:12.530Z,16.60
2023-12-30T05:32:44.533Z,16.93
2023-12-30T05:33:16.558Z,16.03
2023-12-30T05:33:48.592Z,22.13
2023-12-30T05:34:20.985Z,24.33
2023-12-30T05:34:53.126Z,30.20
2023-12-30T05:35:25.085Z,23.57
2023-12-30T05:35:57.247Z,23.17
2023-12-30T05:36:29.382Z,24.63
2023-12-30T05:37:01.303Z,26.43
2023-12-30T05:37:33.285Z,22.93
2023-12-30T05:38:05.254Z,19.93
2023-12-30T05:38:42.138Z,19.03
2023-12-30T05:39:15.966Z,16.40
2023-12-30T05:39:47.985Z,17.53
2023-12-30T05:40:20.046Z,16.50
2023-12-30T05:40:52.111Z,15.77
2023-12-30T05:41:24.112Z,15.53
2023-12-30T05:41:56.274Z,15.47
2023-12-30T05:42:31.141Z,14.87
2023-12-30T05:43:03.402Z,15.93
2023-12-30T05:43:35.563Z,14.73
2023-12-30T05:44:07.607Z,14.40
2023-12-30T05:44:40.470Z,14.87
2023-12-30T05:45:12.389Z,15.40
2023-12-30T05:45:45.449Z,14.43
2023-12-30T05:46:18.147Z,13.07
2023-12-30T05:46:52.276Z,13.87
2023-12-30T05:47:25.057Z,14.03
2023-12-30T05:47:57.123Z,14.87
2023-12-30T05:48:29.204Z,13.23
2023-12-30T05:49:01.337Z,12.70
2023-12-30T05:49:34.381Z,14.37
2023-12-30T05:50:07.259Z,13.23
2023-12-30T05:50:39.281Z,14.20
2023-12-30T05:51:11.686Z,14.60
2023-12-30T05:51:46.743Z,15.80
2023-12-30T05:52:18.798Z,16.17
2023-12-30T05:52:50.724Z,15.00
2023-12-30T05:53:22.605Z,15.07
2023-12-30T05:53:54.590Z,16.00
2023-12-30T05:54:27.602Z,16.40
2023-12-30T05:54:59.591Z,14.50
2023-12-30T05:55:31.586Z,15.07
2023-12-30T05:56:03.697Z,15.43
2023-12-30T05:56:35.693Z,15.43
2023-12-30T05:57:07.678Z,15.20
2023-12-30T05:57:39.610Z,14.87
2023-12-30T05:58:11.666Z,14.87
2023-12-30T05:58:43.593Z,14.77
2023-12-30T05:59:15.483Z,14.97
2023-12-30T05:59:47.420Z,15.47
2023-12-30T06:00:20.620Z,15.27
2023-12-30T06:00:52.619Z,15.33
2023-12-30T06:01:24.745Z,15.50
2023-12-30T06:01:59.693Z,15.67
2023-12-30T06:02:31.889Z,15.33
2023-12-30T06:03:04.787Z,15.20
2023-12-30T06:03:37.878Z,14.40
2023-12-30T06:04:09.941Z,14.93
2023-12-30T06:04:42.477Z,14.97
2023-12-30T06:05:14.432Z,14.60
2023-12-30T06:05:48.598Z,15.40
2023-12-30T06:06:21.414Z,15.80
2023-12-30T06:06:53.614Z,15.33
2023-12-30T06:07:25.575Z,14.77
2023-12-30T06:07:57.576Z,15.10
2023-12-30T06:08:29.509Z,14.90
2023-12-30T06:09:01.637Z,14.43
2023-12-30T06:09:33.936Z,13.83
2023-12-30T06:10:07.758Z,15.43
2023-12-30T06:10:39.867Z,15.67
2023-12-30T06:11:13.168Z,15.63
2023-12-30T06:11:45.210Z,14.70
2023-12-30T06:12:17.170Z,15.10
2023-12-30T06:12:49.129Z,14.83
2023-12-30T06:13:21.795Z,14.60
2023-12-30T06:13:53.772Z,15.13
2023-12-30T06:14:25.662Z,14.53
2023-12-30T06:14:57.736Z,15.13
2023-12-30T06:15:29.672Z,15.70
2023-12-30T06:16:01.850Z,14.63
2023-12-30T06:16:34.027Z,15.33
2023-12-30T06:17:07.174Z,14.87
2023-12-30T06:17:39.253Z,14.90
2023-12-30T06:18:11.273Z,14.60
2023-12-30T06:18:43.317Z,14.60
2023-12-30T06:19:17.957Z,15.10
2023-12-30T06:19:50.218Z,15.13
2023-12-30T06:20:22.643Z,15.47
2023-12-30T06:20:54.714Z,15.57
2023-12-30T06:21:26.787Z,18.10
2023-12-30T06:21:58.664Z,28.63
2023-12-30T06:22:30.652Z,18.43
2023-12-30T06:23:02.827Z,17.10
2023-12-30T06:23:34.870Z,16.77
2023-12-30T06:24:07.134Z,17.07
2023-12-30T06:24:39.124Z,16.67
2023-12-30T06:25:11.212Z,15.43
2023-12-30T06:25:43.297Z,16.10
2023-12-30T06:26:15.198Z,16.87
2023-12-30T06:26:47.173Z,17.20
2023-12-30T06:27:21.583Z,17.83
2023-12-30T06:27:53.583Z,17.77
2023-12-30T06:28:26.397Z,16.77
2023-12-30T06:28:58.514Z,15.53
2023-12-30T06:29:33.217Z,15.80
2023-12-30T06:30:06.720Z,14.67
2023-12-30T06:30:38.738Z,13.97
2023-12-30T06:31:11.104Z,14.50
2023-12-30T06:31:43.704Z,14.63
2023-12-30T06:32:15.796Z,15.63
2023-12-30T06:32:47.905Z,15.80
2023-12-30T06:33:22.168Z,16.03
2023-12-30T06:33:54.258Z,17.10
2023-12-30T06:34:26.290Z,16.90
2023-12-30T06:34:58.204Z,16.23
2023-12-30T06:35:30.131Z,15.27
2023-12-30T06:36:02.014Z,15.47
2023-12-30T06:36:33.974Z,15.83
2023-12-30T06:37:05.903Z,16.20
2023-12-30T06:37:37.893Z,16.10
2023-12-30T06:38:09.888Z,17.23
2023-12-30T06:38:41.751Z,16.63
2023-12-30T06:39:14.679Z,16.43
2023-12-30T06:39:46.750Z,17.07
2023-12-30T06:40:18.671Z,17.40
2023-12-30T06:40:50.696Z,17.80
2023-12-30T06:41:22.785Z,17.10
2023-12-30T06:41:55.470Z,17.07
2023-12-30T06:42:28.224Z,17.57
2023-12-30T06:43:00.407Z,17.30
2023-12-30T06:43:32.652Z,17.03
2023-12-30T06:44:04.707Z,16.07
2023-12-30T06:44:36.658Z,16.47
2023-12-30T06:45:09.241Z,17.33
2023-12-30T06:45:41.233Z,17.10
2023-12-30T06:46:13.320Z,17.70
2023-12-30T06:46:45.255Z,17.30
2023-12-30T06:47:17.253Z,16.57
2023-12-30T06:47:49.232Z,16.70
2023-12-30T06:48:22.824Z,16.50
2023-12-30T06:48:55.136Z,16.57
2023-12-30T06:49:27.305Z,17.07
2023-12-30T06:49:59.367Z,17.67
2023-12-30T06:50:32.362Z,17.30
2023-12-30T06:51:04.302Z,18.43
2023-12-30T06:51:36.279Z,17.80
2023-12-30T06:52:08.252Z,17.13
2023-12-30T06:52:40.333Z,17.57
2023-12-30T06:53:12.291Z,18.00
2023-12-30T06:53:44.299Z,17.17
2023-12-30T06:54:16.272Z,16.37
2023-12-30T06:54:55.660Z,16.93
2023-12-30T06:55:38.184Z,17.13
2023-12-30T06:56:13.901Z,16.77
2023-12-30T06:56:45.828Z,16.40
2023-12-30T06:57:20.565Z,16.13
2023-12-30T06:57:52.580Z,16.10
2023-12-30T06:58:24.525Z,16.33
2023-12-30T06:58:56.481Z,15.93
2023-12-30T06:59:28.601Z,16.87